KSBM/SBM METAR and TAF weather

Enter ICAO airport designator
Station Type Date Time Source
KSBM METAR 2019/12/10 19:53 UTC NOAA

KSBM 101953Z AUTO 30011KT 10SM BKN024 M08/M14 A3011 RMK AO2 SLP210 T10831139


Station Type Date Time Source
KSBM Decoded METAR 2019/12/10 19:53 UTC NOAA

SHEBOYGAN CO MEMORIAL AIRPORT , WI, United States (KSBM) 43-47N 87-51W 232M
Dec 10, 2019 - 02:53 PM EST / 2019.12.10 1953 UTC
Wind: from the WNW (300 degrees) at 13 MPH (11 KT):0
Visibility: 10 mile(s):0
Sky conditions: mostly cloudy
Temperature: 17.1 F (-8.3 C)
Windchill: 3 F (-16 C):1
Dew Point: 7.0 F (-13.9 C)
Relative Humidity: 63%
Pressure (altimeter): 30.11 in. Hg (1019 hPa)
ob: KSBM 101953Z AUTO 30011KT 10SM BKN024 M08/M14 A3011 RMK AO2 SLP210 T10831139
cycle: 20

Station Type Date Time Source
KSBM TAF UTC NOAA

Error!

Example: see airport list